Open Full Screen Window  High Contrast Mode
Wind Gusting 00 knots
07
April 19, 2014 6:44 PM EDT
Weather Information
Wind Direction
  030 °
Wind Speed
  07 kt (8 mph)
Wind Gust
  00 kt (0 mph)
Altimeter
30.31 in
Visibility
10 SM
Temperature
13° C
55° F
Dewpoint
-06° C
21° F
Humidity
26%
1hr Rain Fall
00.00 in.
24hr Rain Fall
00.00 in.
Sky Condition
Clear
VFR

METAR KPOV 192244Z AUTO 03007KT 10SM CLR 13/M06 A3031 RMK AO2 T01251060

*Background is not an actual portrayal of the airport.